createdAt,value
2022-09-22T00:00:10.744Z,46.33
2022-09-22T00:00:23.169Z,46.33
2022-09-22T00:00:35.656Z,46.42
2022-09-22T00:00:47.517Z,46.42
2022-09-22T00:00:59.424Z,46.42
2022-09-22T00:01:11.349Z,46.42
2022-09-22T00:01:22.192Z,46.42
2022-09-22T00:01:34.015Z,46.42
2022-09-22T00:01:44.858Z,46.42
2022-09-22T00:01:56.606Z,46.42
2022-09-22T00:02:07.413Z,46.33
2022-09-22T00:02:18.189Z,46.33
2022-09-22T00:02:30.713Z,46.33
2022-09-22T00:02:42.495Z,46.22
2022-09-22T00:02:54.276Z,46.33
2022-09-22T00:03:06.755Z,46.33
2022-09-22T00:03:17.517Z,46.33
2022-09-22T00:03:28.287Z,46.33
2022-09-22T00:03:39.287Z,46.42
2022-09-22T00:03:51.015Z,46.42
2022-09-22T00:04:03.492Z,46.42
2022-09-22T00:04:14.246Z,46.33
2022-09-22T00:04:25.067Z,46.42
2022-09-22T00:04:35.845Z,46.42
2022-09-22T00:04:46.624Z,46.42
2022-09-22T00:04:57.407Z,46.33
2022-09-22T00:05:09.147Z,46.33
2022-09-22T00:05:21.596Z,46.22
2022-09-22T00:05:32.346Z,46.33
2022-09-22T00:05:45.557Z,46.33
2022-09-22T00:05:57.987Z,46.33
2022-09-22T00:06:08.737Z,46.42
2022-09-22T00:06:19.488Z,46.42
2022-09-22T00:06:31.207Z,46.33
2022-09-22T00:06:42.936Z,46.33
2022-09-22T00:06:53.696Z,46.22
2022-09-22T00:07:04.511Z,46.33
2022-09-22T00:07:15.266Z,46.22
2022-09-22T00:07:26.007Z,46.33
2022-09-22T00:07:36.779Z,46.33
2022-09-22T00:07:49.507Z,46.33
2022-09-22T00:08:00.347Z,46.33
2022-09-22T00:08:12.108Z,46.42
2022-09-22T00:08:22.900Z,46.33
2022-09-22T00:08:33.688Z,46.33
2022-09-22T00:08:46.399Z,46.33
2022-09-22T00:08:57.203Z,46.42
2022-09-22T00:09:07.955Z,46.42
2022-09-22T00:09:20.388Z,46.42
2022-09-22T00:09:32.118Z,46.42
2022-09-22T00:09:43.888Z,46.42
2022-09-22T00:09:56.608Z,46.42
2022-09-22T00:10:07.388Z,46.42
2022-09-22T00:10:19.908Z,46.42
2022-09-22T00:10:30.733Z,46.42
2022-09-22T00:10:41.528Z,46.33
2022-09-22T00:10:53.788Z,46.33
2022-09-22T00:11:06.281Z,46.33
2022-09-22T00:11:17.176Z,46.33
2022-09-22T00:11:29.379Z,46.33
2022-09-22T00:11:41.129Z,46.22
2022-09-22T00:11:51.928Z,46.22
2022-09-22T00:12:02.660Z,46.22
2022-09-22T00:12:13.413Z,46.22
2022-09-22T00:12:24.189Z,46.22
2022-09-22T00:12:34.929Z,46.33
2022-09-22T00:12:45.727Z,46.33
2022-09-22T00:12:58.180Z,46.22
2022-09-22T00:13:08.968Z,46.22
2022-09-22T00:13:19.780Z,46.33
2022-09-22T00:13:30.519Z,46.42
2022-09-22T00:13:41.288Z,46.33
2022-09-22T00:13:54.492Z,46.22
2022-09-22T00:14:05.302Z,46.22
2022-09-22T00:14:17.729Z,46.22
2022-09-22T00:14:28.509Z,46.33
2022-09-22T00:14:39.249Z,46.33
2022-09-22T00:14:50.970Z,46.33
2022-09-22T00:15:01.719Z,46.42
2022-09-22T00:15:12.520Z,46.42
2022-09-22T00:15:23.283Z,46.33
2022-09-22T00:15:35.480Z,46.22
2022-09-22T00:15:46.251Z,46.22
2022-09-22T00:15:56.990Z,46.22
2022-09-22T00:16:09.477Z,46.22
2022-09-22T00:16:20.230Z,46.22
2022-09-22T00:16:32.765Z,46.22
2022-09-22T00:16:43.534Z,46.22
2022-09-22T00:16:56.250Z,46.22
2022-09-22T00:17:09.982Z,46.22
2022-09-22T00:17:20.761Z,46.33
2022-09-22T00:17:32.521Z,46.22
2022-09-22T00:17:43.331Z,46.22
2022-09-22T00:17:55.840Z,46.22
2022-09-22T00:18:06.581Z,46.22
2022-09-22T00:18:17.331Z,46.33
2022-09-22T00:18:28.080Z,46.33
2022-09-22T00:18:38.830Z,46.33
2022-09-22T00:18:49.629Z,46.33
2022-09-22T00:19:01.351Z,46.33
2022-09-22T00:19:12.121Z,46.22
2022-09-22T00:19:22.871Z,46.22
2022-09-22T00:19:35.333Z,46.33
2022-09-22T00:19:46.081Z,46.33
2022-09-22T00:19:56.841Z,46.33
2022-09-22T00:20:09.314Z,46.33
2022-09-22T00:20:20.062Z,46.22
2022-09-22T00:20:30.800Z,46.22
2022-09-22T00:20:41.530Z,46.22
2022-09-22T00:20:52.290Z,46.22
2022-09-22T00:21:04.045Z,46.22
2022-09-22T00:21:14.832Z,46.22
2022-09-22T00:21:27.551Z,46.22
2022-09-22T00:21:40.003Z,46.22
2022-09-22T00:21:51.522Z,46.22
2022-09-22T00:22:02.322Z,46.22
2022-09-22T00:22:14.033Z,46.22
2022-09-22T00:22:24.782Z,46.22
2022-09-22T00:22:35.535Z,46.22
2022-09-22T00:22:46.342Z,46.22
2022-09-22T00:22:57.092Z,46.22
2022-09-22T00:23:09.542Z,46.22
2022-09-22T00:23:20.273Z,46.22
2022-09-22T00:23:31.066Z,46.22
2022-09-22T00:23:41.843Z,46.22
2022-09-22T00:23:54.303Z,46.22
2022-09-22T00:24:07.416Z,46.12
2022-09-22T00:24:20.713Z,46.22
2022-09-22T00:24:33.922Z,46.22
2022-09-22T00:24:46.333Z,46.22
2022-09-22T00:24:57.083Z,46.22
2022-09-22T00:25:10.083Z,46.22
2022-09-22T00:25:20.824Z,46.22
2022-09-22T00:25:31.583Z,46.22
2022-09-22T00:25:43.305Z,46.22
2022-09-22T00:25:54.084Z,46.22
2022-09-22T00:26:06.284Z,46.22
2022-09-22T00:26:17.035Z,46.22
2022-09-22T00:26:27.784Z,46.33
2022-09-22T00:26:38.534Z,46.33
2022-09-22T00:26:49.254Z,46.33
2022-09-22T00:27:00.003Z,46.33
2022-09-22T00:27:12.414Z,46.22
2022-09-22T00:27:24.114Z,46.33
2022-09-22T00:27:34.893Z,46.22
2022-09-22T00:27:45.664Z,46.22
2022-09-22T00:27:59.865Z,46.22
2022-09-22T00:28:10.615Z,46.22
2022-09-22T00:28:23.054Z,46.22
2022-09-22T00:28:34.764Z,46.22
2022-09-22T00:28:46.516Z,46.22
2022-09-22T00:28:58.217Z,46.22
2022-09-22T00:29:09.009Z,46.22
2022-09-22T00:29:19.774Z,46.22
2022-09-22T00:29:30.534Z,46.33
2022-09-22T00:29:42.985Z,46.33
2022-09-22T00:29:54.718Z,46.33
2022-09-22T00:30:06.395Z,46.33
2022-09-22T00:30:17.165Z,46.33
2022-09-22T00:30:28.875Z,46.22
2022-09-22T00:30:39.645Z,46.22
2022-09-22T00:30:50.404Z,46.22
2022-09-22T00:31:01.134Z,46.22
2022-09-22T00:31:12.037Z,46.22
2022-09-22T00:31:22.889Z,46.22
2022-09-22T00:31:34.697Z,46.22
2022-09-22T00:31:45.481Z,46.12
2022-09-22T00:31:57.298Z,46.22
2022-09-22T00:32:09.524Z,46.22
2022-09-22T00:32:20.266Z,46.22
2022-09-22T00:32:31.077Z,46.12
2022-09-22T00:32:42.077Z,46.12
2022-09-22T00:32:52.826Z,46.22
2022-09-22T00:33:03.617Z,46.12
2022-09-22T00:33:14.394Z,46.12
2022-09-22T00:33:25.146Z,46.22
2022-09-22T00:33:37.596Z,46.22
2022-09-22T00:33:50.776Z,46.22
2022-09-22T00:34:03.246Z,46.33
2022-09-22T00:34:14.967Z,46.33
2022-09-22T00:34:25.726Z,46.33
2022-09-22T00:34:37.437Z,46.33
2022-09-22T00:34:49.628Z,46.22
2022-09-22T00:35:00.376Z,46.12
2022-09-22T00:35:11.107Z,46.25
2022-09-22T00:35:21.894Z,46.25
2022-09-22T00:35:32.630Z,46.34
2022-09-22T00:35:45.118Z,46.34
2022-09-22T00:35:55.891Z,46.22
2022-09-22T00:36:06.647Z,46.25
2022-09-22T00:36:18.610Z,46.33
2022-09-22T00:36:29.336Z,46.33
2022-09-22T00:36:42.547Z,46.22
2022-09-22T00:36:53.307Z,46.22
2022-09-22T00:37:04.086Z,46.22
2022-09-22T00:37:17.798Z,46.12
2022-09-22T00:37:28.596Z,46.12
2022-09-22T00:37:41.798Z,46.12
2022-09-22T00:37:53.551Z,46.12
2022-09-22T00:38:04.297Z,46.02
2022-09-22T00:38:15.087Z,46.02
2022-09-22T00:38:25.837Z,46.02
2022-09-22T00:38:37.577Z,46.14
2022-09-22T00:38:49.319Z,46.14
2022-09-22T00:39:01.008Z,46.12
2022-09-22T00:39:11.809Z,46.12
2022-09-22T00:39:22.560Z,46.02
2022-09-22T00:39:33.298Z,46.12
2022-09-22T00:39:45.076Z,46.12
2022-09-22T00:39:55.820Z,46.25
2022-09-22T00:40:06.674Z,46.25
2022-09-22T00:40:18.427Z,46.25
2022-09-22T00:40:30.231Z,46.25
2022-09-22T00:40:41.048Z,46.22
2022-09-22T00:40:51.848Z,46.12
2022-09-22T00:41:02.610Z,46.12
2022-09-22T00:41:13.407Z,46.12
2022-09-22T00:41:24.169Z,46.12
2022-09-22T00:41:34.907Z,46.12
2022-09-22T00:41:45.635Z,46.12
2022-09-22T00:41:56.399Z,46.14
2022-09-22T00:42:07.159Z,46.12
2022-09-22T00:42:19.588Z,46.14
2022-09-22T00:42:31.849Z,46.12
2022-09-22T00:42:42.679Z,46.14
2022-09-22T00:42:55.880Z,46.12
2022-09-22T00:43:07.640Z,46.14
2022-09-22T00:43:19.370Z,46.14
2022-09-22T00:43:31.810Z,46.04
2022-09-22T00:43:43.502Z,46.04
2022-09-22T00:43:54.271Z,46.12
2022-09-22T00:44:05.001Z,46.12
2022-09-22T00:44:15.759Z,46.12
2022-09-22T00:44:28.970Z,46.12
2022-09-22T00:44:39.709Z,46.12
2022-09-22T00:44:50.440Z,46.14
2022-09-22T00:45:01.451Z,46.14
2022-09-22T00:45:13.640Z,46.12
2022-09-22T00:45:24.390Z,46.12
2022-09-22T00:45:35.131Z,46.12
2022-09-22T00:45:45.911Z,46.12
2022-09-22T00:45:57.602Z,46.12
2022-09-22T00:46:10.081Z,46.02
2022-09-22T00:46:20.919Z,46.02
2022-09-22T00:46:32.702Z,46.14
2022-09-22T00:46:43.451Z,46.14
2022-09-22T00:46:54.247Z,46.12
2022-09-22T00:47:05.079Z,46.12
2022-09-22T00:47:17.471Z,46.12
2022-09-22T00:47:29.921Z,46.12
2022-09-22T00:47:40.720Z,46.02
2022-09-22T00:47:51.449Z,46.04
2022-09-22T00:48:02.231Z,46.14
2022-09-22T00:48:13.030Z,46.14
2022-09-22T00:48:23.771Z,46.04
2022-09-22T00:48:36.191Z,46.04
2022-09-22T00:48:48.611Z,46.04
2022-09-22T00:49:01.031Z,46.04
2022-09-22T00:49:13.259Z,46.04
2022-09-22T00:49:26.210Z,46.04
2022-09-22T00:49:38.660Z,45.94
2022-09-22T00:49:49.404Z,46.04
2022-09-22T00:50:01.167Z,46.12
2022-09-22T00:50:11.913Z,46.14
2022-09-22T00:50:22.642Z,46.02
2022-09-22T00:50:34.582Z,45.94
2022-09-22T00:50:45.403Z,45.94
2022-09-22T00:50:56.152Z,46.04
2022-09-22T00:51:09.343Z,46.04
2022-09-22T00:51:20.142Z,46.14
2022-09-22T00:51:32.356Z,46.04
2022-09-22T00:51:44.564Z,46.14
2022-09-22T00:51:56.993Z,46.14
2022-09-22T00:52:08.753Z,46.14
2022-09-22T00:52:19.487Z,46.04
2022-09-22T00:52:31.243Z,46.04
2022-09-22T00:52:42.031Z,46.04
2022-09-22T00:52:52.783Z,46.04
2022-09-22T00:53:05.014Z,46.04
2022-09-22T00:53:15.823Z,46.14
2022-09-22T00:53:26.573Z,46.04
2022-09-22T00:53:37.374Z,46.14
2022-09-22T00:53:50.583Z,46.14
2022-09-22T00:54:03.014Z,46.04
2022-09-22T00:54:13.734Z,45.94
2022-09-22T00:54:24.515Z,46.04
2022-09-22T00:54:35.284Z,46.04
2022-09-22T00:54:48.473Z,46.04
2022-09-22T00:54:59.211Z,46.04
2022-09-22T00:55:09.974Z,46.04
2022-09-22T00:55:22.404Z,46.04
2022-09-22T00:55:35.119Z,46.04
2022-09-22T00:55:45.884Z,46.14
2022-09-22T00:55:56.623Z,46.14
2022-09-22T00:56:07.375Z,46.14
2022-09-22T00:56:18.160Z,46.25
2022-09-22T00:56:30.627Z,46.14
2022-09-22T00:56:41.353Z,46.25
2022-09-22T00:56:52.104Z,46.14
2022-09-22T00:57:02.857Z,46.14
2022-09-22T00:57:14.707Z,46.14
2022-09-22T00:57:27.176Z,46.04
2022-09-22T00:57:39.614Z,46.04
2022-09-22T00:57:50.366Z,46.04
2022-09-22T00:58:02.357Z,46.04
2022-09-22T00:58:15.265Z,46.04
2022-09-22T00:58:27.716Z,46.04
2022-09-22T00:58:40.166Z,46.04
2022-09-22T00:58:52.607Z,46.14
2022-09-22T00:59:03.346Z,46.14
2022-09-22T00:59:16.989Z,46.04
2022-09-22T00:59:27.796Z,46.04
2022-09-22T00:59:38.554Z,46.14
2022-09-22T00:59:49.335Z,46.04
2022-09-22T01:00:00.100Z,46.04
2022-09-22T01:00:10.853Z,46.14
2022-09-22T01:00:21.594Z,46.04
2022-09-22T01:00:33.321Z,46.04
2022-09-22T01:00:45.562Z,46.14
2022-09-22T01:00:56.397Z,46.14
2022-09-22T01:01:07.263Z,46.14
2022-09-22T01:01:20.515Z,46.25
2022-09-22T01:01:31.299Z,46.14
2022-09-22T01:01:44.560Z,46.04
2022-09-22T01:01:56.302Z,45.94
2022-09-22T01:02:07.113Z,45.94
2022-09-22T01:02:18.909Z,45.94
2022-09-22T01:02:29.716Z,46.04
2022-09-22T01:02:42.934Z,46.04
2022-09-22T01:02:54.657Z,46.04
2022-09-22T01:03:06.380Z,45.94
2022-09-22T01:03:18.077Z,46.04
2022-09-22T01:03:29.999Z,46.04
2022-09-22T01:03:42.659Z,46.04
2022-09-22T01:03:53.406Z,45.94
2022-09-22T01:04:04.151Z,45.94
2022-09-22T01:04:17.337Z,45.94
2022-09-22T01:04:28.079Z,45.94
2022-09-22T01:04:38.814Z,45.94
2022-09-22T01:04:49.550Z,45.94
2022-09-22T01:05:00.308Z,45.94
2022-09-22T01:05:12.737Z,45.94
2022-09-22T01:05:23.487Z,45.94
2022-09-22T01:05:34.246Z,45.94
2022-09-22T01:05:45.018Z,45.94
2022-09-22T01:05:55.794Z,45.94
2022-09-22T01:06:06.528Z,45.94
2022-09-22T01:06:18.258Z,45.94
2022-09-22T01:06:28.998Z,45.84
2022-09-22T01:06:39.736Z,45.94
2022-09-22T01:06:50.485Z,45.94
2022-09-22T01:07:01.209Z,45.94
2022-09-22T01:07:11.978Z,45.94
2022-09-22T01:07:22.739Z,45.94
2022-09-22T01:07:33.608Z,45.94
2022-09-22T01:07:45.390Z,45.94
2022-09-22T01:07:57.104Z,45.94
2022-09-22T01:08:07.848Z,45.94
2022-09-22T01:08:19.588Z,45.94
2022-09-22T01:08:30.329Z,45.94
2022-09-22T01:08:42.749Z,45.84
2022-09-22T01:08:54.991Z,45.94
2022-09-22T01:09:06.799Z,46.04
2022-09-22T01:09:17.629Z,46.04
2022-09-22T01:09:28.457Z,46.04
2022-09-22T01:09:39.199Z,45.94
2022-09-22T01:09:51.900Z,45.94
2022-09-22T01:10:04.941Z,45.84
2022-09-22T01:10:15.667Z,45.94
2022-09-22T01:10:27.401Z,45.94
2022-09-22T01:10:38.139Z,45.94
2022-09-22T01:10:50.590Z,45.94
2022-09-22T01:11:03.009Z,45.94
2022-09-22T01:11:15.431Z,45.94
2022-09-22T01:11:28.641Z,46.04
2022-09-22T01:11:39.430Z,45.94
2022-09-22T01:11:50.189Z,45.94
2022-09-22T01:12:00.939Z,45.84
2022-09-22T01:12:11.678Z,45.94
2022-09-22T01:12:22.423Z,45.94
2022-09-22T01:12:34.850Z,45.94
2022-09-22T01:12:47.261Z,45.94
2022-09-22T01:12:59.010Z,45.84
2022-09-22T01:13:09.806Z,45.94
2022-09-22T01:13:20.547Z,46.04
2022-09-22T01:13:32.280Z,45.94
2022-09-22T01:13:43.030Z,45.84
2022-09-22T01:13:53.781Z,45.84
2022-09-22T01:14:04.521Z,45.84
2022-09-22T01:14:15.290Z,45.94
2022-09-22T01:14:26.023Z,45.94
2022-09-22T01:14:36.764Z,46.04
2022-09-22T01:14:47.511Z,45.94
2022-09-22T01:14:58.272Z,45.94
2022-09-22T01:15:09.995Z,45.84
2022-09-22T01:15:20.731Z,45.84
2022-09-22T01:15:31.472Z,45.94
2022-09-22T01:15:42.291Z,45.94
2022-09-22T01:15:53.063Z,45.94
2022-09-22T01:16:04.854Z,45.94
2022-09-22T01:16:15.704Z,45.94
2022-09-22T01:16:28.257Z,45.94
2022-09-22T01:16:39.031Z,46.04
2022-09-22T01:16:49.772Z,46.04
2022-09-22T01:17:00.530Z,45.94
2022-09-22T01:17:12.783Z,45.94
2022-09-22T01:17:23.583Z,46.04
2022-09-22T01:17:34.331Z,45.94
2022-09-22T01:17:45.073Z,45.94
2022-09-22T01:17:57.502Z,45.84
2022-09-22T01:18:09.981Z,45.84
2022-09-22T01:18:22.792Z,45.84
2022-09-22T01:18:35.498Z,45.84
2022-09-22T01:18:47.941Z,45.84
2022-09-22T01:18:58.691Z,45.84
2022-09-22T01:19:11.146Z,45.84
2022-09-22T01:19:21.880Z,45.94
2022-09-22T01:19:32.614Z,45.84
2022-09-22T01:19:43.372Z,45.84
2022-09-22T01:19:54.122Z,45.84
2022-09-22T01:20:07.072Z,45.84
2022-09-22T01:20:17.892Z,45.84
2022-09-22T01:20:28.691Z,45.84
2022-09-22T01:20:40.882Z,45.84
2022-09-22T01:20:52.603Z,45.84
2022-09-22T01:21:05.317Z,45.74
2022-09-22T01:21:16.075Z,45.84
2022-09-22T01:21:28.514Z,45.84
2022-09-22T01:21:40.964Z,45.84
2022-09-22T01:21:51.734Z,45.74
2022-09-22T01:22:02.503Z,45.84
2022-09-22T01:22:13.253Z,45.84
2022-09-22T01:22:24.054Z,45.84
2022-09-22T01:22:36.263Z,45.84
2022-09-22T01:22:48.204Z,45.84
2022-09-22T01:23:01.924Z,45.84
2022-09-22T01:23:12.654Z,45.74
2022-09-22T01:23:23.384Z,45.74
2022-09-22T01:23:36.084Z,45.74
2022-09-22T01:23:46.862Z,45.74
2022-09-22T01:23:58.622Z,45.84
2022-09-22T01:24:11.075Z,45.84
2022-09-22T01:24:22.916Z,45.84
2022-09-22T01:24:33.665Z,45.84
2022-09-22T01:24:44.423Z,45.84
2022-09-22T01:24:55.194Z,45.84
2022-09-22T01:25:06.925Z,45.74
2022-09-22T01:25:17.713Z,45.64
2022-09-22T01:25:30.144Z,45.74
2022-09-22T01:25:40.882Z,45.74
2022-09-22T01:25:52.625Z,45.64
2022-09-22T01:26:05.086Z,45.74
2022-09-22T01:26:16.825Z,45.74
2022-09-22T01:26:27.585Z,45.74
2022-09-22T01:26:38.344Z,45.74
2022-09-22T01:26:49.107Z,45.74
2022-09-22T01:26:59.845Z,45.84
2022-09-22T01:27:10.583Z,45.94
2022-09-22T01:27:21.366Z,45.84
2022-09-22T01:27:32.135Z,45.84
2022-09-22T01:27:42.906Z,45.84
2022-09-22T01:27:55.616Z,45.84
2022-09-22T01:28:07.315Z,45.84
2022-09-22T01:28:20.526Z,45.84
2022-09-22T01:28:34.245Z,45.84
2022-09-22T01:28:45.970Z,45.84
2022-09-22T01:28:58.496Z,45.74
2022-09-22T01:29:10.216Z,45.74
2022-09-22T01:29:20.987Z,45.74
2022-09-22T01:29:33.958Z,45.74
2022-09-22T01:29:45.699Z,45.74
2022-09-22T01:29:57.386Z,45.74
2022-09-22T01:30:08.116Z,45.74
2022-09-22T01:30:21.769Z,45.74
2022-09-22T01:30:32.517Z,45.74
2022-09-22T01:30:44.266Z,45.74
2022-09-22T01:30:56.057Z,45.74
2022-09-22T01:31:08.540Z,45.74
2022-09-22T01:31:21.038Z,45.74
2022-09-22T01:31:33.498Z,45.74
2022-09-22T01:31:46.780Z,45.74
2022-09-22T01:32:00.037Z,45.74
2022-09-22T01:32:10.777Z,45.64
2022-09-22T01:32:21.538Z,45.74
2022-09-22T01:32:32.300Z,45.74
2022-09-22T01:32:44.498Z,45.74
2022-09-22T01:32:56.722Z,45.74
2022-09-22T01:33:07.499Z,45.64
2022-09-22T01:33:19.277Z,45.64
2022-09-22T01:33:30.037Z,45.64
2022-09-22T01:33:40.847Z,45.64
2022-09-22T01:33:52.557Z,45.74
2022-09-22T01:34:04.997Z,45.74
2022-09-22T01:34:15.767Z,45.74
2022-09-22T01:34:26.525Z,45.74
2022-09-22T01:34:37.269Z,45.74
2022-09-22T01:34:48.989Z,45.84
2022-09-22T01:34:59.747Z,45.84
2022-09-22T01:35:10.508Z,45.84
2022-09-22T01:35:21.256Z,45.84
2022-09-22T01:35:31.988Z,45.74
2022-09-22T01:35:42.769Z,45.84
2022-09-22T01:35:53.529Z,45.84
2022-09-22T01:36:05.228Z,45.94
2022-09-22T01:36:15.961Z,45.84
2022-09-22T01:36:26.700Z,45.84
2022-09-22T01:36:37.457Z,45.74
2022-09-22T01:36:48.218Z,45.74
2022-09-22T01:36:58.988Z,45.86
2022-09-22T01:37:09.739Z,45.86
2022-09-22T01:37:20.527Z,45.97
2022-09-22T01:37:32.229Z,45.97
2022-09-22T01:37:43.009Z,45.86
2022-09-22T01:37:53.818Z,45.86
2022-09-22T01:38:04.551Z,45.84
2022-09-22T01:38:16.770Z,45.84
2022-09-22T01:38:27.538Z,45.84
2022-09-22T01:38:40.479Z,45.84
2022-09-22T01:38:53.689Z,45.74
2022-09-22T01:39:05.627Z,45.74
2022-09-22T01:39:17.385Z,45.84
2022-09-22T01:39:29.199Z,45.84
2022-09-22T01:39:39.938Z,45.74
2022-09-22T01:39:52.358Z,45.74
2022-09-22T01:40:04.653Z,45.74
2022-09-22T01:40:15.460Z,45.74
2022-09-22T01:40:26.271Z,45.84
2022-09-22T01:40:37.070Z,45.84
2022-09-22T01:40:49.570Z,45.74
2022-09-22T01:41:02.059Z,45.66
2022-09-22T01:41:15.271Z,45.76
2022-09-22T01:41:27.210Z,45.86
2022-09-22T01:41:38.001Z,45.84
2022-09-22T01:41:50.431Z,45.74
2022-09-22T01:42:02.172Z,45.76
2022-09-22T01:42:12.961Z,45.86
2022-09-22T01:42:23.710Z,45.86
2022-09-22T01:42:34.499Z,45.76
2022-09-22T01:42:45.280Z,45.86
2022-09-22T01:42:56.032Z,45.86
2022-09-22T01:43:07.744Z,45.86
2022-09-22T01:43:18.481Z,45.86
2022-09-22T01:43:31.423Z,45.86
2022-09-22T01:43:44.630Z,45.76
2022-09-22T01:43:56.362Z,45.76
2022-09-22T01:44:07.100Z,45.86
2022-09-22T01:44:17.831Z,45.86
2022-09-22T01:44:28.611Z,45.86
2022-09-22T01:44:40.312Z,45.86
2022-09-22T01:44:51.051Z,45.86
2022-09-22T01:45:01.810Z,45.86
2022-09-22T01:45:13.552Z,45.86
2022-09-22T01:45:24.291Z,45.86
2022-09-22T01:45:35.041Z,45.86
2022-09-22T01:45:46.788Z,45.97
2022-09-22T01:45:57.542Z,45.86
2022-09-22T01:46:08.309Z,45.86
2022-09-22T01:46:19.110Z,45.86
2022-09-22T01:46:29.915Z,45.86
2022-09-22T01:46:40.797Z,45.86
2022-09-22T01:46:51.609Z,45.84
2022-09-22T01:47:02.383Z,45.76
2022-09-22T01:47:14.602Z,45.76
2022-09-22T01:47:26.302Z,45.76
2022-09-22T01:47:38.063Z,45.86
2022-09-22T01:47:49.822Z,45.86
2022-09-22T01:48:01.534Z,45.86
2022-09-22T01:48:13.280Z,45.76
2022-09-22T01:48:24.073Z,45.76
2022-09-22T01:48:34.813Z,45.76
2022-09-22T01:48:45.592Z,45.66
2022-09-22T01:48:56.353Z,45.76
2022-09-22T01:49:10.563Z,45.86
2022-09-22T01:49:22.315Z,45.66
2022-09-22T01:49:33.045Z,45.66
2022-09-22T01:49:43.823Z,45.66
2022-09-22T01:49:56.036Z,45.76
2022-09-22T01:50:07.884Z,45.66
2022-09-22T01:50:20.322Z,45.76
2022-09-22T01:50:32.044Z,45.76
2022-09-22T01:50:44.483Z,45.66
2022-09-22T01:50:55.223Z,45.76
2022-09-22T01:51:05.957Z,45.76
2022-09-22T01:51:17.654Z,45.76
2022-09-22T01:51:28.395Z,45.66
2022-09-22T01:51:40.833Z,45.66
2022-09-22T01:51:53.069Z,45.76
2022-09-22T01:52:04.885Z,45.86
2022-09-22T01:52:15.673Z,45.76
2022-09-22T01:52:28.133Z,45.76
2022-09-22T01:52:40.575Z,45.66
2022-09-22T01:52:53.025Z,45.66
2022-09-22T01:53:05.956Z,45.66
2022-09-22T01:53:16.744Z,45.66
2022-09-22T01:53:27.490Z,45.66
2022-09-22T01:53:39.175Z,45.76
2022-09-22T01:53:49.924Z,45.66
2022-09-22T01:54:01.634Z,45.66
2022-09-22T01:54:12.405Z,45.76
2022-09-22T01:54:24.105Z,45.76
2022-09-22T01:54:34.895Z,45.76
2022-09-22T01:54:47.363Z,45.66
2022-09-22T01:54:58.135Z,45.66
2022-09-22T01:55:09.875Z,45.66
2022-09-22T01:55:20.646Z,45.66
2022-09-22T01:55:31.393Z,45.66
2022-09-22T01:55:43.845Z,45.66
2022-09-22T01:55:55.575Z,45.66
2022-09-22T01:56:07.306Z,45.66
2022-09-22T01:56:18.097Z,45.66
2022-09-22T01:56:28.825Z,45.66
2022-09-22T01:56:40.988Z,45.66
2022-09-22T01:56:51.725Z,45.66
2022-09-22T01:57:02.456Z,45.66
2022-09-22T01:57:14.175Z,45.66
2022-09-22T01:57:24.947Z,45.66
2022-09-22T01:57:36.695Z,45.66
2022-09-22T01:57:48.407Z,45.66
2022-09-22T01:58:00.156Z,45.66
2022-09-22T01:58:10.896Z,45.66
2022-09-22T01:58:21.636Z,45.66
2022-09-22T01:58:32.374Z,45.66
2022-09-22T01:58:44.107Z,45.66
2022-09-22T01:58:54.837Z,45.66
2022-09-22T01:59:05.567Z,45.66
2022-09-22T01:59:16.325Z,45.76
2022-09-22T01:59:28.036Z,45.76
2022-09-22T01:59:40.280Z,45.76
2022-09-22T01:59:51.016Z,45.66
2022-09-22T02:00:02.817Z,45.66
2022-09-22T02:00:13.558Z,45.66
2022-09-22T02:00:25.278Z,45.66
2022-09-22T02:00:37.030Z,45.66
2022-09-22T02:00:47.796Z,45.66
2022-09-22T02:00:58.543Z,45.66
2022-09-22T02:01:14.588Z,45.66
2022-09-22T02:01:26.800Z,45.66
2022-09-22T02:01:37.665Z,45.66
2022-09-22T02:01:48.476Z,45.66
2022-09-22T02:02:01.111Z,45.66
2022-09-22T02:02:12.982Z,45.76
2022-09-22T02:02:23.880Z,45.76
2022-09-22T02:02:35.725Z,45.76
2022-09-22T02:02:47.630Z,45.66
2022-09-22T02:03:00.110Z,45.66
2022-09-22T02:03:12.577Z,45.66
2022-09-22T02:03:24.298Z,45.66
2022-09-22T02:03:35.078Z,45.56
2022-09-22T02:03:45.859Z,45.56
2022-09-22T02:03:57.551Z,45.66
2022-09-22T02:04:10.019Z,45.66
2022-09-22T02:04:20.831Z,45.66
2022-09-22T02:04:31.569Z,45.66
2022-09-22T02:04:42.348Z,45.66
2022-09-22T02:04:53.119Z,45.66
2022-09-22T02:05:05.829Z,45.66
2022-09-22T02:05:16.578Z,45.56
2022-09-22T02:05:27.328Z,45.66
2022-09-22T02:05:39.029Z,45.66
2022-09-22T02:05:50.739Z,45.66
2022-09-22T02:06:01.510Z,45.56
2022-09-22T02:06:13.704Z,45.56
2022-09-22T02:06:24.509Z,45.56
2022-09-22T02:06:35.239Z,45.46
2022-09-22T02:06:48.670Z,45.56
2022-09-22T02:06:59.431Z,45.56
2022-09-22T02:07:10.209Z,45.56
2022-09-22T02:07:20.991Z,45.56
2022-09-22T02:07:31.755Z,45.56
2022-09-22T02:07:43.430Z,45.56
2022-09-22T02:07:55.871Z,45.56
2022-09-22T02:08:06.630Z,45.66
2022-09-22T02:08:18.840Z,45.56
2022-09-22T02:08:29.599Z,45.56
2022-09-22T02:08:40.340Z,45.56
2022-09-22T02:08:51.129Z,45.56
2022-09-22T02:09:03.588Z,45.56
2022-09-22T02:09:15.300Z,45.66
2022-09-22T02:09:26.030Z,45.56
2022-09-22T02:09:36.771Z,45.56
2022-09-22T02:09:49.970Z,45.56
2022-09-22T02:10:02.465Z,45.56
2022-09-22T02:10:13.201Z,45.46
2022-09-22T02:10:23.968Z,45.46
2022-09-22T02:10:36.383Z,45.46
2022-09-22T02:10:47.180Z,45.56
2022-09-22T02:10:59.619Z,45.56
2022-09-22T02:11:10.404Z,45.46
2022-09-22T02:11:21.229Z,45.46
2022-09-22T02:11:32.001Z,45.46
2022-09-22T02:11:43.713Z,45.56
2022-09-22T02:11:54.461Z,45.56
2022-09-22T02:12:06.881Z,45.66
2022-09-22T02:12:17.651Z,45.76
2022-09-22T02:12:28.384Z,45.66
2022-09-22T02:12:40.136Z,45.56
2022-09-22T02:12:51.861Z,45.46
2022-09-22T02:13:04.801Z,45.46
2022-09-22T02:13:17.532Z,45.46
2022-09-22T02:13:28.342Z,45.56
2022-09-22T02:13:39.121Z,45.66
2022-09-22T02:13:49.871Z,45.66
2022-09-22T02:14:02.373Z,45.56
2022-09-22T02:14:13.140Z,45.56
2022-09-22T02:14:23.903Z,45.66
2022-09-22T02:14:34.663Z,45.66
2022-09-22T02:14:47.115Z,45.66
2022-09-22T02:14:57.862Z,45.56
2022-09-22T02:15:10.272Z,45.66
2022-09-22T02:15:22.502Z,45.66
2022-09-22T02:15:34.269Z,45.66
2022-09-22T02:15:45.013Z,45.66
2022-09-22T02:15:55.882Z,45.56
2022-09-22T02:16:07.638Z,45.56
2022-09-22T02:16:19.907Z,45.56
2022-09-22T02:16:31.593Z,45.56
2022-09-22T02:16:42.323Z,45.56
2022-09-22T02:16:54.752Z,45.46
2022-09-22T02:17:05.483Z,45.46
2022-09-22T02:17:16.255Z,45.46
2022-09-22T02:17:29.631Z,45.46
2022-09-22T02:17:43.923Z,45.56
2022-09-22T02:17:54.673Z,45.56
2022-09-22T02:18:05.397Z,45.56
2022-09-22T02:18:17.103Z,45.46
2022-09-22T02:18:27.854Z,45.56
2022-09-22T02:18:38.603Z,45.56
2022-09-22T02:18:49.353Z,45.56
2022-09-22T02:19:11.895Z,45.56
2022-09-22T02:19:17.402Z,45.56
2022-09-22T02:19:30.337Z,45.66
2022-09-22T02:19:42.074Z,45.66
2022-09-22T02:19:52.823Z,45.66
2022-09-22T02:20:06.067Z,45.56
2022-09-22T02:20:17.994Z,45.56
2022-09-22T02:20:31.203Z,45.56
2022-09-22T02:20:41.942Z,45.46
2022-09-22T02:20:52.694Z,45.46
2022-09-22T02:21:05.156Z,45.46
2022-09-22T02:21:16.864Z,45.56
2022-09-22T02:21:27.674Z,45.56
2022-09-22T02:21:40.795Z,45.56
2022-09-22T02:21:53.284Z,45.56
2022-09-22T02:22:04.036Z,45.56
2022-09-22T02:22:14.805Z,45.56
2022-09-22T02:22:25.604Z,45.46
2022-09-22T02:22:37.325Z,45.46
2022-09-22T02:22:48.115Z,45.36
2022-09-22T02:22:59.826Z,45.36
2022-09-22T02:23:10.604Z,45.36
2022-09-22T02:23:22.836Z,45.46
2022-09-22T02:23:34.806Z,45.46
2022-09-22T02:23:45.564Z,45.46
2022-09-22T02:23:57.342Z,45.46
2022-09-22T02:24:09.056Z,45.46
2022-09-22T02:24:21.755Z,45.46
2022-09-22T02:24:32.534Z,45.36
2022-09-22T02:24:43.320Z,45.46
2022-09-22T02:24:54.087Z,45.46
2022-09-22T02:25:04.885Z,45.46
2022-09-22T02:25:15.635Z,45.36
2022-09-22T02:25:26.396Z,45.46
2022-09-22T02:25:38.106Z,45.46
2022-09-22T02:25:48.872Z,45.46
2022-09-22T02:26:01.316Z,45.36
2022-09-22T02:26:12.086Z,45.36
2022-09-22T02:26:23.877Z,45.36
2022-09-22T02:26:37.092Z,45.36
2022-09-22T02:26:47.844Z,45.36
2022-09-22T02:26:59.589Z,45.26
2022-09-22T02:27:10.377Z,45.36
2022-09-22T02:27:21.211Z,45.36
2022-09-22T02:27:32.937Z,45.46